sensor_id;sensor_type;location;lat;lon;timestamp;P1;durP1;ratioP1;P2;durP2;ratioP2
21615;SDS011;10970;48.714;9.584;2023-02-23T00:00:41;16.43;;;14.30;;
21615;SDS011;10970;48.714;9.584;2023-02-23T00:03:08;19.17;;;13.15;;
21615;SDS011;10970;48.714;9.584;2023-02-23T00:05:34;18.73;;;12.63;;
21615;SDS011;10970;48.714;9.584;2023-02-23T00:08:01;15.48;;;12.30;;
21615;SDS011;10970;48.714;9.584;2023-02-23T00:10:27;17.77;;;12.60;;
21615;SDS011;10970;48.714;9.584;2023-02-23T00:12:58;15.10;;;12.75;;
21615;SDS011;10970;48.714;9.584;2023-02-23T00:15:27;25.85;;;15.27;;
21615;SDS011;10970;48.714;9.584;2023-02-23T00:17:54;16.13;;;12.93;;
21615;SDS011;10970;48.714;9.584;2023-02-23T00:20:21;20.95;;;15.07;;
21615;SDS011;10970;48.714;9.584;2023-02-23T00:22:54;18.60;;;13.85;;
21615;SDS011;10970;48.714;9.584;2023-02-23T00:25:22;19.42;;;14.02;;
21615;SDS011;10970;48.714;9.584;2023-02-23T00:27:49;19.92;;;14.45;;
21615;SDS011;10970;48.714;9.584;2023-02-23T00:30:16;18.00;;;13.48;;
21615;SDS011;10970;48.714;9.584;2023-02-23T00:32:43;18.63;;;14.73;;
21615;SDS011;10970;48.714;9.584;2023-02-23T00:35:09;23.03;;;15.33;;
21615;SDS011;10970;48.714;9.584;2023-02-23T00:37:46;19.65;;;14.75;;
21615;SDS011;10970;48.714;9.584;2023-02-23T00:40:13;19.73;;;14.48;;
21615;SDS011;10970;48.714;9.584;2023-02-23T00:42:43;16.52;;;12.85;;
21615;SDS011;10970;48.714;9.584;2023-02-23T00:45:10;16.17;;;13.13;;
21615;SDS011;10970;48.714;9.584;2023-02-23T00:47:38;19.80;;;12.30;;
21615;SDS011;10970;48.714;9.584;2023-02-23T00:50:06;15.30;;;12.48;;
21615;SDS011;10970;48.714;9.584;2023-02-23T00:52:36;15.18;;;11.75;;
21615;SDS011;10970;48.714;9.584;2023-02-23T00:55:03;20.92;;;12.50;;
21615;SDS011;10970;48.714;9.584;2023-02-23T00:57:30;20.50;;;11.57;;
21615;SDS011;10970;48.714;9.584;2023-02-23T00:59:57;17.77;;;12.57;;
21615;SDS011;10970;48.714;9.584;2023-02-23T01:02:22;15.93;;;12.03;;
21615;SDS011;10970;48.714;9.584;2023-02-23T01:04:49;17.80;;;11.68;;
21615;SDS011;10970;48.714;9.584;2023-02-23T01:07:14;20.53;;;12.10;;
21615;SDS011;10970;48.714;9.584;2023-02-23T01:09:40;17.43;;;11.90;;
21615;SDS011;10970;48.714;9.584;2023-02-23T01:12:06;14.33;;;11.77;;
21615;SDS011;10970;48.714;9.584;2023-02-23T01:14:32;15.40;;;11.70;;
21615;SDS011;10970;48.714;9.584;2023-02-23T01:16:58;17.63;;;11.63;;
21615;SDS011;10970;48.714;9.584;2023-02-23T01:19:24;16.85;;;11.63;;
21615;SDS011;10970;48.714;9.584;2023-02-23T01:21:50;19.93;;;12.43;;
21615;SDS011;10970;48.714;9.584;2023-02-23T01:24:15;19.00;;;11.40;;
21615;SDS011;10970;48.714;9.584;2023-02-23T01:26:42;14.37;;;12.20;;
21615;SDS011;10970;48.714;9.584;2023-02-23T01:29:10;18.42;;;12.43;;
21615;SDS011;10970;48.714;9.584;2023-02-23T01:31:43;16.20;;;11.32;;
21615;SDS011;10970;48.714;9.584;2023-02-23T01:34:15;15.75;;;12.70;;
21615;SDS011;10970;48.714;9.584;2023-02-23T01:36:42;23.20;;;15.40;;
21615;SDS011;10970;48.714;9.584;2023-02-23T01:39:12;19.55;;;13.68;;
21615;SDS011;10970;48.714;9.584;2023-02-23T01:41:39;16.92;;;12.90;;
21615;SDS011;10970;48.714;9.584;2023-02-23T01:44:07;15.10;;;12.30;;
21615;SDS011;10970;48.714;9.584;2023-02-23T01:46:37;14.35;;;11.20;;
21615;SDS011;10970;48.714;9.584;2023-02-23T01:49:12;16.65;;;10.63;;
21615;SDS011;10970;48.714;9.584;2023-02-23T01:51:48;20.92;;;13.05;;
21615;SDS011;10970;48.714;9.584;2023-02-23T01:54:17;15.45;;;12.63;;
21615;SDS011;10970;48.714;9.584;2023-02-23T01:56:48;13.95;;;11.23;;
21615;SDS011;10970;48.714;9.584;2023-02-23T01:59:22;15.57;;;11.50;;
21615;SDS011;10970;48.714;9.584;2023-02-23T02:01:52;15.00;;;11.32;;
21615;SDS011;10970;48.714;9.584;2023-02-23T02:04:19;16.63;;;12.43;;
21615;SDS011;10970;48.714;9.584;2023-02-23T02:06:47;14.43;;;12.18;;
21615;SDS011;10970;48.714;9.584;2023-02-23T02:09:17;14.88;;;12.75;;
21615;SDS011;10970;48.714;9.584;2023-02-23T02:11:44;17.58;;;12.82;;
21615;SDS011;10970;48.714;9.584;2023-02-23T02:19:56;14.88;;;11.88;;
21615;SDS011;10970;48.714;9.584;2023-02-23T02:41:33;14.45;;;12.40;;
21615;SDS011;10970;48.714;9.584;2023-02-23T02:44:16;18.85;;;11.73;;
21615;SDS011;10970;48.714;9.584;2023-02-23T02:47:04;17.45;;;12.00;;
21615;SDS011;10970;48.714;9.584;2023-02-23T02:49:56;16.55;;;12.55;;
21615;SDS011;10970;48.714;9.584;2023-02-23T02:52:32;16.95;;;13.30;;
21615;SDS011;10970;48.714;9.584;2023-02-23T02:55:15;19.55;;;12.95;;
21615;SDS011;10970;48.714;9.584;2023-02-23T02:57:48;16.95;;;12.82;;
21615;SDS011;10970;48.714;9.584;2023-02-23T03:00:22;16.38;;;13.27;;
21615;SDS011;10970;48.714;9.584;2023-02-23T03:03:57;21.83;;;12.70;;
21615;SDS011;10970;48.714;9.584;2023-02-23T03:06:19;16.80;;;12.65;;
21615;SDS011;10970;48.714;9.584;2023-02-23T03:15:23;19.10;;;13.40;;
21615;SDS011;10970;48.714;9.584;2023-02-23T03:21:18;19.38;;;13.30;;
21615;SDS011;10970;48.714;9.584;2023-02-23T03:30:27;18.27;;;13.18;;
21615;SDS011;10970;48.714;9.584;2023-02-23T03:33:23;17.85;;;13.77;;
21615;SDS011;10970;48.714;9.584;2023-02-23T03:36:16;18.77;;;13.68;;
21615;SDS011;10970;48.714;9.584;2023-02-23T03:39:20;17.98;;;14.25;;
21615;SDS011;10970;48.714;9.584;2023-02-23T03:42:16;19.48;;;15.02;;
21615;SDS011;10970;48.714;9.584;2023-02-23T03:45:07;18.40;;;13.02;;
21615;SDS011;10970;48.714;9.584;2023-02-23T03:47:55;17.75;;;12.82;;
21615;SDS011;10970;48.714;9.584;2023-02-23T03:50:44;16.73;;;13.70;;
21615;SDS011;10970;48.714;9.584;2023-02-23T03:56:44;21.20;;;15.88;;
21615;SDS011;10970;48.714;9.584;2023-02-23T03:59:33;22.65;;;16.25;;
21615;SDS011;10970;48.714;9.584;2023-02-23T04:02:22;18.52;;;16.00;;
21615;SDS011;10970;48.714;9.584;2023-02-23T04:05:09;22.63;;;16.02;;
21615;SDS011;10970;48.714;9.584;2023-02-23T04:07:57;18.55;;;15.30;;
21615;SDS011;10970;48.714;9.584;2023-02-23T04:10:47;20.77;;;15.63;;
21615;SDS011;10970;48.714;9.584;2023-02-23T04:13:34;24.02;;;15.25;;
21615;SDS011;10970;48.714;9.584;2023-02-23T04:16:04;21.52;;;15.30;;
21615;SDS011;10970;48.714;9.584;2023-02-23T04:18:32;20.85;;;15.48;;
21615;SDS011;10970;48.714;9.584;2023-02-23T04:20:59;19.35;;;14.50;;
21615;SDS011;10970;48.714;9.584;2023-02-23T04:23:26;23.20;;;16.83;;
21615;SDS011;10970;48.714;9.584;2023-02-23T04:25:53;21.67;;;15.90;;
21615;SDS011;10970;48.714;9.584;2023-02-23T04:28:19;18.67;;;15.48;;
21615;SDS011;10970;48.714;9.584;2023-02-23T04:30:46;17.40;;;14.00;;
21615;SDS011;10970;48.714;9.584;2023-02-23T04:33:12;23.33;;;15.20;;
21615;SDS011;10970;48.714;9.584;2023-02-23T04:35:38;23.00;;;15.93;;
21615;SDS011;10970;48.714;9.584;2023-02-23T04:38:04;23.63;;;16.90;;
21615;SDS011;10970;48.714;9.584;2023-02-23T04:40:30;20.60;;;15.47;;
21615;SDS011;10970;48.714;9.584;2023-02-23T04:42:56;23.25;;;16.30;;
21615;SDS011;10970;48.714;9.584;2023-02-23T04:45:22;28.70;;;16.97;;
21615;SDS011;10970;48.714;9.584;2023-02-23T04:47:48;20.60;;;15.57;;
21615;SDS011;10970;48.714;9.584;2023-02-23T04:50:15;22.77;;;16.45;;
21615;SDS011;10970;48.714;9.584;2023-02-23T04:52:41;24.55;;;16.85;;
21615;SDS011;10970;48.714;9.584;2023-02-23T04:55:07;19.40;;;15.63;;
21615;SDS011;10970;48.714;9.584;2023-02-23T04:57:40;29.25;;;20.27;;
21615;SDS011;10970;48.714;9.584;2023-02-23T05:00:06;25.90;;;18.37;;
21615;SDS011;10970;48.714;9.584;2023-02-23T05:02:33;26.85;;;18.10;;
21615;SDS011;10970;48.714;9.584;2023-02-23T05:04:58;23.23;;;17.77;;
21615;SDS011;10970;48.714;9.584;2023-02-23T05:07:24;20.87;;;17.07;;
21615;SDS011;10970;48.714;9.584;2023-02-23T05:09:50;21.77;;;17.00;;
21615;SDS011;10970;48.714;9.584;2023-02-23T05:12:15;17.93;;;15.43;;
21615;SDS011;10970;48.714;9.584;2023-02-23T05:14:41;21.57;;;14.33;;
21615;SDS011;10970;48.714;9.584;2023-02-23T05:17:07;19.90;;;15.87;;
21615;SDS011;10970;48.714;9.584;2023-02-23T05:19:32;23.13;;;17.60;;
21615;SDS011;10970;48.714;9.584;2023-02-23T05:21:58;21.43;;;16.50;;
21615;SDS011;10970;48.714;9.584;2023-02-23T05:24:24;23.70;;;16.77;;
21615;SDS011;10970;48.714;9.584;2023-02-23T05:26:49;20.33;;;14.33;;
21615;SDS011;10970;48.714;9.584;2023-02-23T05:29:15;17.87;;;15.40;;
21615;SDS011;10970;48.714;9.584;2023-02-23T05:31:41;25.02;;;16.67;;
21615;SDS011;10970;48.714;9.584;2023-02-23T05:34:12;21.00;;;15.48;;
21615;SDS011;10970;48.714;9.584;2023-02-23T05:36:38;23.10;;;14.73;;
21615;SDS011;10970;48.714;9.584;2023-02-23T05:39:04;22.23;;;14.73;;
21615;SDS011;10970;48.714;9.584;2023-02-23T05:41:29;18.90;;;14.80;;
21615;SDS011;10970;48.714;9.584;2023-02-23T05:43:55;20.77;;;15.97;;
21615;SDS011;10970;48.714;9.584;2023-02-23T05:46:22;20.97;;;16.23;;
21615;SDS011;10970;48.714;9.584;2023-02-23T05:48:50;17.17;;;15.35;;
21615;SDS011;10970;48.714;9.584;2023-02-23T05:51:19;23.52;;;17.73;;
21615;SDS011;10970;48.714;9.584;2023-02-23T05:53:45;24.40;;;16.37;;
21615;SDS011;10970;48.714;9.584;2023-02-23T05:56:13;20.25;;;16.13;;
21615;SDS011;10970;48.714;9.584;2023-02-23T05:58:44;20.63;;;15.23;;
21615;SDS011;10970;48.714;9.584;2023-02-23T06:01:14;21.85;;;16.35;;
21615;SDS011;10970;48.714;9.584;2023-02-23T06:03:39;20.55;;;16.73;;
21615;SDS011;10970;48.714;9.584;2023-02-23T06:06:05;22.53;;;16.13;;
21615;SDS011;10970;48.714;9.584;2023-02-23T06:08:31;20.60;;;16.67;;
21615;SDS011;10970;48.714;9.584;2023-02-23T06:10:57;20.87;;;16.40;;
21615;SDS011;10970;48.714;9.584;2023-02-23T06:13:22;20.97;;;16.60;;
21615;SDS011;10970;48.714;9.584;2023-02-23T06:15:48;25.47;;;18.13;;
21615;SDS011;10970;48.714;9.584;2023-02-23T06:18:13;20.70;;;16.77;;
21615;SDS011;10970;48.714;9.584;2023-02-23T06:20:41;18.70;;;16.80;;
21615;SDS011;10970;48.714;9.584;2023-02-23T06:23:06;21.97;;;17.27;;
21615;SDS011;10970;48.714;9.584;2023-02-23T06:25:32;17.63;;;15.63;;
21615;SDS011;10970;48.714;9.584;2023-02-23T06:27:58;31.13;;;16.93;;
21615;SDS011;10970;48.714;9.584;2023-02-23T06:30:23;20.33;;;16.07;;
21615;SDS011;10970;48.714;9.584;2023-02-23T06:32:49;24.33;;;17.00;;
21615;SDS011;10970;48.714;9.584;2023-02-23T06:35:15;24.13;;;17.17;;
21615;SDS011;10970;48.714;9.584;2023-02-23T06:37:40;21.80;;;17.40;;
21615;SDS011;10970;48.714;9.584;2023-02-23T06:40:07;22.80;;;16.50;;
21615;SDS011;10970;48.714;9.584;2023-02-23T06:42:33;22.55;;;18.45;;
21615;SDS011;10970;48.714;9.584;2023-02-23T06:45:01;18.48;;;16.42;;
21615;SDS011;10970;48.714;9.584;2023-02-23T06:47:27;25.02;;;16.95;;
21615;SDS011;10970;48.714;9.584;2023-02-23T06:49:52;18.63;;;16.57;;
21615;SDS011;10970;48.714;9.584;2023-02-23T06:52:18;23.37;;;17.47;;
21615;SDS011;10970;48.714;9.584;2023-02-23T06:54:44;21.90;;;16.93;;
21615;SDS011;10970;48.714;9.584;2023-02-23T06:57:10;21.07;;;16.40;;
21615;SDS011;10970;48.714;9.584;2023-02-23T06:59:36;22.00;;;16.25;;
21615;SDS011;10970;48.714;9.584;2023-02-23T07:02:03;21.42;;;16.38;;
21615;SDS011;10970;48.714;9.584;2023-02-23T07:04:29;23.08;;;16.60;;
21615;SDS011;10970;48.714;9.584;2023-02-23T07:06:55;24.77;;;16.63;;
21615;SDS011;10970;48.714;9.584;2023-02-23T07:09:21;21.83;;;17.33;;
21615;SDS011;10970;48.714;9.584;2023-02-23T07:11:47;21.20;;;17.50;;
21615;SDS011;10970;48.714;9.584;2023-02-23T07:14:13;23.47;;;17.50;;
21615;SDS011;10970;48.714;9.584;2023-02-23T07:16:39;24.10;;;19.50;;
21615;SDS011;10970;48.714;9.584;2023-02-23T07:19:05;31.23;;;22.10;;
21615;SDS011;10970;48.714;9.584;2023-02-23T07:21:31;31.17;;;18.73;;
21615;SDS011;10970;48.714;9.584;2023-02-23T07:23:58;24.33;;;17.65;;
21615;SDS011;10970;48.714;9.584;2023-02-23T07:26:24;22.95;;;18.15;;
21615;SDS011;10970;48.714;9.584;2023-02-23T07:28:50;24.10;;;18.07;;
21615;SDS011;10970;48.714;9.584;2023-02-23T07:31:15;26.50;;;18.07;;
21615;SDS011;10970;48.714;9.584;2023-02-23T07:33:41;22.07;;;18.07;;
21615;SDS011;10970;48.714;9.584;2023-02-23T07:36:07;24.37;;;17.87;;
21615;SDS011;10970;48.714;9.584;2023-02-23T07:38:33;56.38;;;35.60;;
21615;SDS011;10970;48.714;9.584;2023-02-23T07:40:59;54.65;;;32.22;;
21615;SDS011;10970;48.714;9.584;2023-02-23T07:43:25;31.57;;;22.20;;
21615;SDS011;10970;48.714;9.584;2023-02-23T07:45:50;23.43;;;18.63;;
21615;SDS011;10970;48.714;9.584;2023-02-23T07:48:17;25.35;;;20.63;;
21615;SDS011;10970;48.714;9.584;2023-02-23T07:50:43;24.75;;;20.65;;
21615;SDS011;10970;48.714;9.584;2023-02-23T07:53:09;25.77;;;20.93;;
21615;SDS011;10970;48.714;9.584;2023-02-23T07:55:35;29.52;;;21.85;;
21615;SDS011;10970;48.714;9.584;2023-02-23T07:58:02;29.35;;;21.40;;
21615;SDS011;10970;48.714;9.584;2023-02-23T08:00:29;26.65;;;21.90;;
21615;SDS011;10970;48.714;9.584;2023-02-23T08:02:55;27.57;;;20.07;;
21615;SDS011;10970;48.714;9.584;2023-02-23T08:05:21;24.13;;;18.90;;
21615;SDS011;10970;48.714;9.584;2023-02-23T08:07:47;27.60;;;20.67;;
21615;SDS011;10970;48.714;9.584;2023-02-23T08:10:12;26.73;;;20.50;;
21615;SDS011;10970;48.714;9.584;2023-02-23T08:12:38;25.70;;;20.00;;
21615;SDS011;10970;48.714;9.584;2023-02-23T08:15:04;25.83;;;20.70;;
21615;SDS011;10970;48.714;9.584;2023-02-23T08:17:32;24.20;;;18.52;;
21615;SDS011;10970;48.714;9.584;2023-02-23T08:19:58;29.40;;;19.77;;
21615;SDS011;10970;48.714;9.584;2023-02-23T08:22:24;22.03;;;19.53;;
21615;SDS011;10970;48.714;9.584;2023-02-23T08:24:51;21.67;;;18.15;;
21615;SDS011;10970;48.714;9.584;2023-02-23T08:27:17;20.60;;;18.33;;
21615;SDS011;10970;48.714;9.584;2023-02-23T08:29:43;30.92;;;20.85;;
21615;SDS011;10970;48.714;9.584;2023-02-23T08:32:09;22.20;;;18.23;;
21615;SDS011;10970;48.714;9.584;2023-02-23T08:34:40;26.97;;;19.27;;
21615;SDS011;10970;48.714;9.584;2023-02-23T08:37:07;22.73;;;19.40;;
21615;SDS011;10970;48.714;9.584;2023-02-23T08:39:33;29.63;;;20.47;;
21615;SDS011;10970;48.714;9.584;2023-02-23T08:41:58;24.60;;;19.40;;
21615;SDS011;10970;48.714;9.584;2023-02-23T08:44:24;24.13;;;18.33;;
21615;SDS011;10970;48.714;9.584;2023-02-23T08:46:50;31.17;;;20.30;;
21615;SDS011;10970;48.714;9.584;2023-02-23T08:54:28;28.45;;;19.55;;
21615;SDS011;10970;48.714;9.584;2023-02-23T08:56:54;28.70;;;21.05;;
21615;SDS011;10970;48.714;9.584;2023-02-23T08:59:22;32.97;;;21.58;;
21615;SDS011;10970;48.714;9.584;2023-02-23T09:01:47;28.57;;;20.90;;
21615;SDS011;10970;48.714;9.584;2023-02-23T09:04:13;28.53;;;19.77;;
21615;SDS011;10970;48.714;9.584;2023-02-23T09:06:39;28.03;;;19.40;;
21615;SDS011;10970;48.714;9.584;2023-02-23T09:09:05;24.83;;;19.88;;
21615;SDS011;10970;48.714;9.584;2023-02-23T09:11:31;28.20;;;20.47;;
21615;SDS011;10970;48.714;9.584;2023-02-23T09:13:57;34.00;;;20.47;;
21615;SDS011;10970;48.714;9.584;2023-02-23T09:16:22;29.13;;;19.00;;
21615;SDS011;10970;48.714;9.584;2023-02-23T09:18:48;26.50;;;18.98;;
21615;SDS011;10970;48.714;9.584;2023-02-23T09:21:16;31.90;;;20.27;;
21615;SDS011;10970;48.714;9.584;2023-02-23T09:23:44;31.23;;;18.60;;
21615;SDS011;10970;48.714;9.584;2023-02-23T09:26:12;34.70;;;22.80;;
21615;SDS011;10970;48.714;9.584;2023-02-23T09:28:38;27.40;;;20.43;;
21615;SDS011;10970;48.714;9.584;2023-02-23T09:31:09;35.20;;;21.40;;
21615;SDS011;10970;48.714;9.584;2023-02-23T09:33:36;23.87;;;19.33;;
21615;SDS011;10970;48.714;9.584;2023-02-23T09:36:09;27.57;;;19.63;;
21615;SDS011;10970;48.714;9.584;2023-02-23T09:38:37;22.07;;;19.13;;
21615;SDS011;10970;48.714;9.584;2023-02-23T09:41:04;24.57;;;18.87;;
21615;SDS011;10970;48.714;9.584;2023-02-23T09:49:10;19.37;;;13.57;;
21615;SDS011;10970;48.714;9.584;2023-02-23T09:51:42;21.50;;;14.60;;
21615;SDS011;10970;48.714;9.584;2023-02-23T09:54:13;29.00;;;16.07;;
21615;SDS011;10970;48.714;9.584;2023-02-23T09:56:42;18.60;;;15.03;;
21615;SDS011;10970;48.714;9.584;2023-02-23T09:59:15;18.07;;;15.60;;
21615;SDS011;10970;48.714;9.584;2023-02-23T10:06:38;18.10;;;14.53;;
21615;SDS011;10970;48.714;9.584;2023-02-23T10:09:24;16.87;;;14.13;;
21615;SDS011;10970;48.714;9.584;2023-02-23T10:12:09;15.03;;;12.20;;
21615;SDS011;10970;48.714;9.584;2023-02-23T10:17:19;17.87;;;12.43;;
21615;SDS011;10970;48.714;9.584;2023-02-23T10:22:23;17.50;;;11.00;;
21615;SDS011;10970;48.714;9.584;2023-02-23T10:24:52;19.20;;;13.07;;
21615;SDS011;10970;48.714;9.584;2023-02-23T10:27:24;13.23;;;11.93;;
21615;SDS011;10970;48.714;9.584;2023-02-23T10:29:57;18.43;;;14.90;;
21615;SDS011;10970;48.714;9.584;2023-02-23T10:35:18;13.97;;;11.80;;
21615;SDS011;10970;48.714;9.584;2023-02-23T10:37:48;12.70;;;10.60;;
21615;SDS011;10970;48.714;9.584;2023-02-23T10:40:19;14.87;;;10.33;;
21615;SDS011;10970;48.714;9.584;2023-02-23T10:42:47;13.00;;;9.20;;
21615;SDS011;10970;48.714;9.584;2023-02-23T10:45:15;16.47;;;11.63;;
21615;SDS011;10970;48.714;9.584;2023-02-23T10:47:53;14.97;;;11.23;;
21615;SDS011;10970;48.714;9.584;2023-02-23T10:50:24;11.00;;;9.90;;
21615;SDS011;10970;48.714;9.584;2023-02-23T10:53:38;14.13;;;8.80;;
21615;SDS011;10970;48.714;9.584;2023-02-23T10:56:02;11.47;;;8.60;;
21615;SDS011;10970;48.714;9.584;2023-02-23T10:58:42;9.90;;;8.87;;
21615;SDS011;10970;48.714;9.584;2023-02-23T11:01:11;13.27;;;8.50;;
21615;SDS011;10970;48.714;9.584;2023-02-23T11:03:57;11.43;;;9.70;;
21615;SDS011;10970;48.714;9.584;2023-02-23T11:09:39;11.63;;;8.57;;
21615;SDS011;10970;48.714;9.584;2023-02-23T11:14:49;8.97;;;7.93;;
21615;SDS011;10970;48.714;9.584;2023-02-23T11:17:22;9.97;;;8.07;;
21615;SDS011;10970;48.714;9.584;2023-02-23T11:20:00;9.90;;;8.83;;
21615;SDS011;10970;48.714;9.584;2023-02-23T11:22:32;8.60;;;7.67;;
21615;SDS011;10970;48.714;9.584;2023-02-23T11:25:01;13.10;;;9.50;;
21615;SDS011;10970;48.714;9.584;2023-02-23T11:27:38;9.10;;;8.00;;
21615;SDS011;10970;48.714;9.584;2023-02-23T11:30:09;11.13;;;7.50;;
21615;SDS011;10970;48.714;9.584;2023-02-23T11:32:37;8.90;;;7.73;;
21615;SDS011;10970;48.714;9.584;2023-02-23T11:35:19;8.17;;;6.93;;
21615;SDS011;10970;48.714;9.584;2023-02-23T11:37:52;11.70;;;6.90;;
21615;SDS011;10970;48.714;9.584;2023-02-23T11:40:20;7.17;;;6.47;;
21615;SDS011;10970;48.714;9.584;2023-02-23T11:42:50;8.33;;;7.53;;
21615;SDS011;10970;48.714;9.584;2023-02-23T11:45:18;7.50;;;5.33;;
21615;SDS011;10970;48.714;9.584;2023-02-23T11:47:46;9.40;;;5.80;;
21615;SDS011;10970;48.714;9.584;2023-02-23T11:52:59;8.10;;;5.03;;
21615;SDS011;10970;48.714;9.584;2023-02-23T11:55:35;8.20;;;6.20;;
21615;SDS011;10970;48.714;9.584;2023-02-23T12:01:07;6.97;;;5.40;;
21615;SDS011;10970;48.714;9.584;2023-02-23T12:03:48;5.10;;;4.43;;
21615;SDS011;10970;48.714;9.584;2023-02-23T12:06:38;5.37;;;4.40;;
21615;SDS011;10970;48.714;9.584;2023-02-23T12:09:15;7.40;;;4.83;;
21615;SDS011;10970;48.714;9.584;2023-02-23T12:12:02;4.60;;;3.90;;
21615;SDS011;10970;48.714;9.584;2023-02-23T12:17:22;6.83;;;5.37;;
21615;SDS011;10970;48.714;9.584;2023-02-23T12:22:22;5.07;;;3.87;;
21615;SDS011;10970;48.714;9.584;2023-02-23T12:25:04;4.90;;;3.33;;
21615;SDS011;10970;48.714;9.584;2023-02-23T12:27:42;6.27;;;3.83;;
21615;SDS011;10970;48.714;9.584;2023-02-23T12:30:19;10.13;;;4.87;;
21615;SDS011;10970;48.714;9.584;2023-02-23T12:32:53;6.30;;;3.90;;
21615;SDS011;10970;48.714;9.584;2023-02-23T12:35:28;6.77;;;3.97;;
21615;SDS011;10970;48.714;9.584;2023-02-23T12:38:02;7.03;;;4.80;;
21615;SDS011;10970;48.714;9.584;2023-02-23T12:40:38;6.03;;;4.37;;
21615;SDS011;10970;48.714;9.584;2023-02-23T12:46:05;5.57;;;3.90;;
21615;SDS011;10970;48.714;9.584;2023-02-23T12:51:03;8.37;;;4.27;;
21615;SDS011;10970;48.714;9.584;2023-02-23T12:53:38;4.77;;;3.40;;
21615;SDS011;10970;48.714;9.584;2023-02-23T12:58:58;5.80;;;3.60;;
21615;SDS011;10970;48.714;9.584;2023-02-23T13:12:51;3.90;;;2.83;;
21615;SDS011;10970;48.714;9.584;2023-02-23T13:23:34;7.03;;;3.90;;
21615;SDS011;10970;48.714;9.584;2023-02-23T13:29:01;5.70;;;3.20;;
21615;SDS011;10970;48.714;9.584;2023-02-23T13:31:34;6.90;;;3.53;;
21615;SDS011;10970;48.714;9.584;2023-02-23T13:34:02;6.50;;;3.37;;
21615;SDS011;10970;48.714;9.584;2023-02-23T13:36:31;5.47;;;3.60;;
21615;SDS011;10970;48.714;9.584;2023-02-23T13:52:54;8.47;;;4.53;;
21615;SDS011;10970;48.714;9.584;2023-02-23T13:57:54;8.57;;;4.10;;
21615;SDS011;10970;48.714;9.584;2023-02-23T14:00:28;7.57;;;4.27;;
21615;SDS011;10970;48.714;9.584;2023-02-23T14:02:54;5.20;;;3.53;;
21615;SDS011;10970;48.714;9.584;2023-02-23T14:05:21;6.73;;;4.37;;
21615;SDS011;10970;48.714;9.584;2023-02-23T14:07:59;5.30;;;3.63;;
21615;SDS011;10970;48.714;9.584;2023-02-23T14:10:27;4.60;;;3.70;;
21615;SDS011;10970;48.714;9.584;2023-02-23T14:21:09;5.73;;;4.10;;
21615;SDS011;10970;48.714;9.584;2023-02-23T14:24:00;4.50;;;3.27;;
21615;SDS011;10970;48.714;9.584;2023-02-23T14:29:30;4.80;;;3.43;;
21615;SDS011;10970;48.714;9.584;2023-02-23T14:37:24;6.03;;;3.27;;
21615;SDS011;10970;48.714;9.584;2023-02-23T14:39:56;5.93;;;3.37;;
21615;SDS011;10970;48.714;9.584;2023-02-23T14:42:30;4.07;;;2.40;;
21615;SDS011;10970;48.714;9.584;2023-02-23T14:45:21;4.30;;;1.90;;
21615;SDS011;10970;48.714;9.584;2023-02-23T14:48:03;3.13;;;1.90;;
21615;SDS011;10970;48.714;9.584;2023-02-23T14:50:32;5.47;;;2.10;;
21615;SDS011;10970;48.714;9.584;2023-02-23T14:53:00;7.37;;;2.17;;
21615;SDS011;10970;48.714;9.584;2023-02-23T14:55:30;4.60;;;1.50;;
21615;SDS011;10970;48.714;9.584;2023-02-23T14:57:59;5.27;;;2.60;;
21615;SDS011;10970;48.714;9.584;2023-02-23T15:00:45;5.63;;;2.00;;
21615;SDS011;10970;48.714;9.584;2023-02-23T15:03:12;7.60;;;3.20;;
21615;SDS011;10970;48.714;9.584;2023-02-23T15:06:12;3.17;;;2.37;;
21615;SDS011;10970;48.714;9.584;2023-02-23T15:08:31;3.50;;;2.60;;
21615;SDS011;10970;48.714;9.584;2023-02-23T15:11:13;5.10;;;2.10;;
21615;SDS011;10970;48.714;9.584;2023-02-23T15:13:40;10.60;;;2.67;;
21615;SDS011;10970;48.714;9.584;2023-02-23T15:16:15;2.63;;;1.50;;
21615;SDS011;10970;48.714;9.584;2023-02-23T15:19:01;2.03;;;1.83;;
21615;SDS011;10970;48.714;9.584;2023-02-23T15:21:28;3.73;;;1.83;;
21615;SDS011;10970;48.714;9.584;2023-02-23T15:24:02;2.63;;;1.90;;
21615;SDS011;10970;48.714;9.584;2023-02-23T15:26:35;2.30;;;1.83;;
21615;SDS011;10970;48.714;9.584;2023-02-23T15:31:37;5.93;;;3.40;;
21615;SDS011;10970;48.714;9.584;2023-02-23T15:34:15;2.67;;;2.30;;
21615;SDS011;10970;48.714;9.584;2023-02-23T15:37:11;3.80;;;2.73;;
21615;SDS011;10970;48.714;9.584;2023-02-23T15:39:45;3.60;;;3.20;;
21615;SDS011;10970;48.714;9.584;2023-02-23T15:42:17;4.30;;;2.50;;
21615;SDS011;10970;48.714;9.584;2023-02-23T15:44:52;3.97;;;2.70;;
21615;SDS011;10970;48.714;9.584;2023-02-23T15:47:21;4.27;;;2.63;;
21615;SDS011;10970;48.714;9.584;2023-02-23T15:49:57;5.10;;;2.83;;
21615;SDS011;10970;48.714;9.584;2023-02-23T15:52:31;5.93;;;2.70;;
21615;SDS011;10970;48.714;9.584;2023-02-23T15:55:04;4.50;;;3.57;;
21615;SDS011;10970;48.714;9.584;2023-02-23T15:57:42;6.57;;;4.60;;
21615;SDS011;10970;48.714;9.584;2023-02-23T16:00:19;7.07;;;4.33;;
21615;SDS011;10970;48.714;9.584;2023-02-23T16:03:06;13.07;;;7.67;;
21615;SDS011;10970;48.714;9.584;2023-02-23T16:05:33;7.60;;;4.17;;
21615;SDS011;10970;48.714;9.584;2023-02-23T16:10:47;6.60;;;4.00;;
21615;SDS011;10970;48.714;9.584;2023-02-23T16:13:16;11.47;;;7.13;;
21615;SDS011;10970;48.714;9.584;2023-02-23T16:15:45;3.40;;;3.10;;
21615;SDS011;10970;48.714;9.584;2023-02-23T16:18:13;5.83;;;4.93;;
21615;SDS011;10970;48.714;9.584;2023-02-23T16:23:23;9.33;;;4.13;;
21615;SDS011;10970;48.714;9.584;2023-02-23T16:26:18;3.70;;;3.13;;
21615;SDS011;10970;48.714;9.584;2023-02-23T16:28:50;4.07;;;3.67;;
21615;SDS011;10970;48.714;9.584;2023-02-23T16:31:24;3.77;;;3.07;;
21615;SDS011;10970;48.714;9.584;2023-02-23T16:36:54;9.87;;;5.30;;
21615;SDS011;10970;48.714;9.584;2023-02-23T16:39:21;10.10;;;5.50;;
21615;SDS011;10970;48.714;9.584;2023-02-23T16:41:53;7.20;;;5.80;;
21615;SDS011;10970;48.714;9.584;2023-02-23T16:44:22;5.00;;;3.60;;
21615;SDS011;10970;48.714;9.584;2023-02-23T16:49:22;9.87;;;4.77;;
21615;SDS011;10970;48.714;9.584;2023-02-23T16:51:48;7.40;;;4.47;;
21615;SDS011;10970;48.714;9.584;2023-02-23T16:54:14;5.47;;;4.90;;
21615;SDS011;10970;48.714;9.584;2023-02-23T16:56:40;8.53;;;4.70;;
21615;SDS011;10970;48.714;9.584;2023-02-23T16:59:06;11.00;;;5.70;;
21615;SDS011;10970;48.714;9.584;2023-02-23T17:01:35;9.33;;;6.20;;
21615;SDS011;10970;48.714;9.584;2023-02-23T17:04:01;13.73;;;7.20;;
21615;SDS011;10970;48.714;9.584;2023-02-23T17:06:27;6.30;;;5.67;;
21615;SDS011;10970;48.714;9.584;2023-02-23T17:08:52;8.70;;;6.53;;
21615;SDS011;10970;48.714;9.584;2023-02-23T17:11:18;8.70;;;4.83;;
21615;SDS011;10970;48.714;9.584;2023-02-23T17:13:44;11.40;;;6.03;;
21615;SDS011;10970;48.714;9.584;2023-02-23T17:16:10;8.20;;;4.80;;
21615;SDS011;10970;48.714;9.584;2023-02-23T17:18:37;7.20;;;5.00;;
21615;SDS011;10970;48.714;9.584;2023-02-23T17:21:05;6.33;;;5.37;;
21615;SDS011;10970;48.714;9.584;2023-02-23T17:23:33;7.60;;;5.17;;
21615;SDS011;10970;48.714;9.584;2023-02-23T17:26:14;6.87;;;5.60;;
21615;SDS011;10970;48.714;9.584;2023-02-23T17:28:42;11.17;;;6.20;;
21615;SDS011;10970;48.714;9.584;2023-02-23T17:31:08;12.83;;;6.20;;
21615;SDS011;10970;48.714;9.584;2023-02-23T17:33:34;8.10;;;6.33;;